Time;durP1;ratioP1;P1;durP2;ratioP2;P2;SDS_P1;SDS_P2;PMS_P1;PMS_P2;Temp;Humidity;BMP_temperature;BMP_pressure;BME280_temperature;BME280_humidity;BME280_pressure;Samples;Min_cycle;Max_cycle;Signal;HPM_P1;HPM_P2
2023/05/05 00:00:20;;;;;;;3.70;1.30;;;20.60;53.00;;;;;;4992531;28;20120;-67
2023/05/05 00:02:46;;;;;;;2.50;1.20;;;20.50;53.00;;;;;;4992433;28;20133;-68
2023/05/05 00:05:12;;;;;;;3.40;1.48;;;20.50;53.00;;;;;;4992664;28;20478;-67
2023/05/05 00:07:38;;;;;;;2.05;1.35;;;20.50;53.00;;;;;;4993266;28;20096;-67
2023/05/05 00:10:04;;;;;;;3.70;1.30;;;20.50;52.90;;;;;;4991259;28;20050;-67
2023/05/05 00:12:30;;;;;;;3.03;1.15;;;20.50;52.90;;;;;;4992943;28;20371;-67
2023/05/05 00:14:55;;;;;;;3.17;1.40;;;20.50;53.00;;;;;;4993246;28;20050;-67
2023/05/05 00:17:21;;;;;;;4.00;1.40;;;20.50;53.00;;;;;;4992072;28;20100;-67
2023/05/05 00:19:46;;;;;;;3.33;1.30;;;20.50;53.00;;;;;;4991452;28;20441;-67
2023/05/05 00:22:12;;;;;;;3.05;1.35;;;20.50;52.90;;;;;;4992769;28;20504;-67
2023/05/05 00:24:37;;;;;;;3.30;1.27;;;20.50;52.90;;;;;;4991966;28;20049;-68
2023/05/05 00:27:03;;;;;;;2.45;1.40;;;20.50;52.90;;;;;;4991447;28;20557;-67
2023/05/05 00:29:29;;;;;;;2.80;1.63;;;20.50;52.90;;;;;;4991218;28;20125;-67
2023/05/05 00:31:55;;;;;;;2.75;1.30;;;20.50;52.90;;;;;;4990692;28;20046;-67
2023/05/05 00:34:21;;;;;;;3.35;1.40;;;20.50;52.90;;;;;;4991330;28;20074;-67
2023/05/05 00:36:47;;;;;;;2.40;1.10;;;20.50;52.90;;;;;;5008395;28;20136;-67
2023/05/05 00:39:12;;;;;;;2.30;1.20;;;20.40;52.90;;;;;;4991594;28;20520;-67
2023/05/05 00:41:38;;;;;;;1.92;1.40;;;20.50;53.60;;;;;;4992869;28;20490;-67
2023/05/05 00:44:04;;;;;;;3.30;1.50;;;20.40;52.90;;;;;;4994294;28;20045;-67
2023/05/05 00:46:29;;;;;;;2.63;1.20;;;20.40;52.80;;;;;;5004875;28;20046;-67
2023/05/05 00:48:55;;;;;;;2.80;1.23;;;20.40;52.90;;;;;;4992497;28;20050;-67
2023/05/05 00:51:21;;;;;;;3.15;1.30;;;20.40;52.80;;;;;;4991462;28;20142;-67
2023/05/05 00:53:47;;;;;;;3.03;1.60;;;20.40;52.80;;;;;;4999217;28;20038;-67
2023/05/05 00:56:13;;;;;;;2.67;1.35;;;20.40;52.80;;;;;;5014501;28;20125;-67
2023/05/05 00:58:42;;;;;;;2.53;1.48;;;20.40;52.80;;;;;;5014295;28;20472;-66
2023/05/05 01:01:08;;;;;;;2.63;1.48;;;20.40;52.80;;;;;;5014988;28;20493;-67
2023/05/05 01:03:36;;;;;;;1.75;1.13;;;20.40;52.80;;;;;;5015836;28;20046;-67
2023/05/05 01:06:19;;;;;;;3.05;1.40;;;20.40;52.80;;;;;;5013672;28;20052;-67
2023/05/05 01:09:04;;;;;;;1.88;1.20;;;20.40;52.90;;;;;;5014082;28;20085;-67
2023/05/05 01:11:47;;;;;;;2.67;1.17;;;20.40;52.80;;;;;;5014184;28;20475;-67
2023/05/05 01:14:17;;;;;;;2.42;1.17;;;20.40;52.80;;;;;;5013110;28;20073;-67
2023/05/05 01:16:57;;;;;;;2.50;1.25;;;20.40;52.80;;;;;;5030464;28;20049;-67
2023/05/05 01:19:34;;;;;;;2.83;1.30;;;20.40;52.80;;;;;;5015022;28;20508;-67
2023/05/05 01:22:01;;;;;;;2.00;1.05;;;20.40;52.80;;;;;;5012578;28;20049;-67
2023/05/05 01:24:39;;;;;;;1.85;1.23;;;20.30;52.80;;;;;;4978312;28;20050;-67
2023/05/05 01:27:13;;;;;;;;;;;20.30;52.70;;;;;;4994515;28;21692;-67
2023/05/05 01:30:21;;;;;;;3.33;1.20;;;20.30;52.80;;;;;;4978368;28;19922;-67
2023/05/05 01:32:49;;;;;;;2.92;1.20;;;20.30;52.80;;;;;;4990851;28;20497;-67
2023/05/05 01:35:18;;;;;;;2.17;1.30;;;20.30;52.80;;;;;;4993408;28;20500;-67
2023/05/05 01:37:54;;;;;;;3.30;1.40;;;20.30;52.70;;;;;;4994683;28;20050;-67
2023/05/05 01:40:24;;;;;;;2.92;1.35;;;20.30;52.80;;;;;;4995400;28;20124;-67
2023/05/05 01:42:49;;;;;;;2.85;1.38;;;20.30;52.70;;;;;;4993670;28;20054;-67
2023/05/05 01:45:15;;;;;;;2.53;1.38;;;20.30;52.70;;;;;;4995745;28;20119;-67
2023/05/05 01:47:40;;;;;;;3.58;1.45;;;20.30;52.80;;;;;;4994561;28;20042;-67
2023/05/05 01:50:07;;;;;;;2.30;1.30;;;20.30;52.70;;;;;;4993021;28;20057;-67
2023/05/05 01:52:33;;;;;;;2.80;1.45;;;20.30;52.70;;;;;;4994176;28;20482;-67
2023/05/05 01:54:59;;;;;;;2.45;1.30;;;20.30;52.70;;;;;;4994094;28;20493;-67
2023/05/05 01:57:25;;;;;;;2.15;1.38;;;20.30;52.70;;;;;;4994178;28;20448;-67
2023/05/05 01:59:51;;;;;;;3.13;1.60;;;20.30;52.70;;;;;;4995157;28;20058;-67
2023/05/05 02:02:16;;;;;;;2.80;1.40;;;20.30;52.70;;;;;;4997344;28;20046;-67
2023/05/05 02:04:42;;;;;;;2.53;1.48;;;20.30;52.70;;;;;;5013548;28;20037;-67
2023/05/05 02:07:08;;;;;;;2.30;1.20;;;20.30;52.70;;;;;;5012006;28;20401;-67
2023/05/05 02:09:33;;;;;;;2.05;1.40;;;20.30;52.80;;;;;;5012413;28;20050;-67
2023/05/05 02:11:59;;;;;;;2.80;1.25;;;20.30;52.70;;;;;;5012752;28;20056;-67
2023/05/05 02:14:26;;;;;;;3.53;1.50;;;20.20;52.70;;;;;;5012935;28;20202;-67
2023/05/05 02:16:51;;;;;;;2.30;1.63;;;20.30;52.80;;;;;;5012750;28;20129;-66
2023/05/05 02:19:17;;;;;;;4.10;1.35;;;20.30;52.80;;;;;;4980032;28;20148;-66
2023/05/05 02:21:43;;;;;;;2.53;1.30;;;20.20;52.70;;;;;;4996729;28;20378;-67
2023/05/05 02:24:09;;;;;;;2.30;1.50;;;20.20;52.70;;;;;;5012901;28;20049;-67
2023/05/05 02:26:37;;;;;;;2.60;1.38;;;20.20;52.70;;;;;;4996542;28;20151;-67
2023/05/05 02:29:06;;;;;;;2.10;1.40;;;20.20;52.70;;;;;;5013809;28;20413;-67
2023/05/05 02:31:33;;;;;;;2.92;1.52;;;20.20;52.70;;;;;;5012413;28;20038;-67
2023/05/05 02:34:00;;;;;;;2.40;1.38;;;20.20;52.70;;;;;;5012820;28;20058;-67
2023/05/05 02:36:27;;;;;;;1.45;1.13;;;20.20;52.70;;;;;;4996621;28;20077;-67
2023/05/05 02:38:57;;;;;;;2.40;1.50;;;20.20;52.70;;;;;;4995446;28;20042;-66
2023/05/05 02:41:23;;;;;;;1.85;1.10;;;20.20;52.70;;;;;;5012304;28;20557;-67
2023/05/05 02:43:49;;;;;;;2.30;1.23;;;20.20;52.70;;;;;;5012693;28;20038;-67
2023/05/05 02:46:15;;;;;;;2.95;1.33;;;20.20;52.70;;;;;;4995204;28;20056;-67
2023/05/05 02:48:40;;;;;;;2.08;1.20;;;20.20;52.70;;;;;;5013438;28;20076;-67
2023/05/05 02:51:06;;;;;;;2.55;1.40;;;20.20;52.70;;;;;;5012281;28;20046;-66
2023/05/05 02:53:32;;;;;;;3.28;1.60;;;20.20;52.70;;;;;;5013105;28;20038;-67
2023/05/05 02:56:32;;;;;;;3.55;1.40;;;20.20;52.70;;;;;;5013639;28;20088;-66
2023/05/05 02:59:37;;;;;;;1.92;1.20;;;20.20;52.60;;;;;;4981041;28;20137;-66
2023/05/05 03:02:12;;;;;;;2.03;1.25;;;20.10;52.60;;;;;;5013012;28;20061;-66
2023/05/05 03:04:40;;;;;;;1.73;1.20;;;20.10;52.70;;;;;;4993558;28;20046;-67
2023/05/05 03:07:10;;;;;;;3.33;1.80;;;20.10;52.60;;;;;;4991572;28;20113;-67
2023/05/05 03:09:38;;;;;;;1.90;1.40;;;20.10;52.70;;;;;;4993281;28;20386;-66
2023/05/05 03:12:04;;;;;;;;;;;20.10;52.70;;;;;;4997763;28;20042;-66
2023/05/05 03:14:35;;;;;;;3.00;1.60;;;20.10;52.60;;;;;;5010861;28;19928;-66
2023/05/05 03:17:00;;;;;;;2.53;1.60;;;20.10;52.60;;;;;;5012986;28;20045;-66
2023/05/05 03:19:26;;;;;;;2.25;1.40;;;20.10;52.60;;;;;;5012995;28;20034;-67
2023/05/05 03:21:52;;;;;;;2.35;1.38;;;20.10;52.60;;;;;;5011228;28;20439;-67
2023/05/05 03:24:18;;;;;;;1.98;1.20;;;20.10;52.60;;;;;;4998426;28;20050;-67
2023/05/05 03:26:44;;;;;;;1.70;1.33;;;20.10;52.60;;;;;;4992511;28;20054;-66
2023/05/05 03:29:11;;;;;;;2.53;1.40;;;20.10;52.60;;;;;;4993088;28;20085;-67
2023/05/05 03:31:36;;;;;;;3.20;1.70;;;20.10;52.50;;;;;;4992280;28;20046;-66
2023/05/05 03:34:02;;;;;;;2.58;1.60;;;20.10;52.60;;;;;;4991313;28;20046;-66
2023/05/05 03:36:28;;;;;;;2.78;1.40;;;20.10;52.60;;;;;;4999342;28;20050;-66
2023/05/05 03:38:53;;;;;;;1.92;1.38;;;20.10;52.50;;;;;;4992917;28;20038;-67
2023/05/05 03:41:20;;;;;;;2.95;1.50;;;20.10;52.50;;;;;;4992458;28;20113;-67
2023/05/05 03:43:46;;;;;;;2.00;1.40;;;20.10;52.60;;;;;;4993367;28;20057;-67
2023/05/05 03:46:12;;;;;;;3.88;1.55;;;20.10;52.60;;;;;;4991666;28;20043;-67
2023/05/05 03:48:37;;;;;;;1.60;1.20;;;20.10;52.60;;;;;;4992617;28;20073;-67
2023/05/05 03:51:03;;;;;;;2.33;1.42;;;20.10;52.60;;;;;;4993120;28;20490;-66
2023/05/05 03:53:28;;;;;;;2.03;1.33;;;20.00;52.50;;;;;;4993089;28;20069;-67
2023/05/05 03:55:54;;;;;;;3.22;1.33;;;20.10;52.60;;;;;;4991030;28;20453;-66
2023/05/05 03:58:19;;;;;;;2.70;1.60;;;20.00;52.50;;;;;;4992829;28;20034;-67
2023/05/05 04:00:45;;;;;;;3.13;1.50;;;20.00;52.50;;;;;;4992593;28;20077;-66
2023/05/05 04:03:11;;;;;;;2.55;1.60;;;20.00;52.50;;;;;;5009975;28;20049;-67
2023/05/05 04:05:36;;;;;;;2.33;1.27;;;20.00;52.50;;;;;;4991937;28;20043;-67
2023/05/05 04:08:02;;;;;;;2.17;1.50;;;20.00;52.50;;;;;;4992402;28;20050;-67
2023/05/05 04:10:28;;;;;;;2.65;1.40;;;20.00;52.50;;;;;;5024897;28;20088;-67
2023/05/05 04:12:54;;;;;;;2.47;1.40;;;20.00;52.60;;;;;;5031605;28;20064;-66
2023/05/05 04:15:19;;;;;;;1.90;1.30;;;20.00;52.60;;;;;;4992908;28;20548;-67
2023/05/05 04:17:45;;;;;;;2.33;1.60;;;20.00;52.60;;;;;;4992284;28;20097;-66
2023/05/05 04:20:11;;;;;;;2.10;1.60;;;20.00;52.60;;;;;;4992687;28;20045;-67
2023/05/05 04:22:36;;;;;;;3.60;1.55;;;20.00;52.60;;;;;;4992889;28;20450;-67
2023/05/05 04:25:02;;;;;;;2.47;1.40;;;20.00;52.60;;;;;;4992273;28;20043;-67
2023/05/05 04:27:29;;;;;;;2.78;1.63;;;20.00;52.60;;;;;;4992806;28;20042;-67
2023/05/05 04:29:55;;;;;;;3.10;1.73;;;20.00;52.60;;;;;;4996460;28;20047;-67
2023/05/05 04:32:20;;;;;;;1.77;1.20;;;20.00;52.60;;;;;;4994712;28;20079;-67
2023/05/05 04:34:46;;;;;;;2.60;1.50;;;20.00;52.70;;;;;;4996758;28;20141;-66
2023/05/05 04:37:12;;;;;;;2.50;1.50;;;20.00;52.70;;;;;;4995773;28;20121;-67
2023/05/05 04:39:37;;;;;;;2.35;1.30;;;20.00;52.70;;;;;;5018158;28;20120;-67
2023/05/05 04:42:03;;;;;;;2.35;1.40;;;20.00;52.70;;;;;;5035591;28;20373;-66
2023/05/05 04:44:29;;;;;;;2.45;1.40;;;20.00;52.70;;;;;;5011632;28;20049;-67
2023/05/05 04:46:55;;;;;;;2.85;1.50;;;20.00;52.70;;;;;;4996692;28;20092;-67
2023/05/05 04:49:20;;;;;;;2.15;1.40;;;20.00;52.80;;;;;;4996035;28;20089;-67
2023/05/05 04:51:46;;;;;;;2.38;1.38;;;20.00;52.80;;;;;;4995713;28;20050;-66
2023/05/05 04:54:11;;;;;;;2.75;1.67;;;20.00;52.80;;;;;;4993986;28;20057;-67
2023/05/05 04:56:37;;;;;;;2.80;1.67;;;20.00;52.80;;;;;;4996340;28;20046;-67
2023/05/05 04:59:02;;;;;;;1.98;1.45;;;20.00;52.80;;;;;;4995579;28;20046;-67
2023/05/05 05:01:28;;;;;;;2.72;1.48;;;20.00;52.80;;;;;;4994720;28;20074;-67
2023/05/05 05:03:53;;;;;;;2.28;1.42;;;20.00;53.40;;;;;;4995979;28;20039;-68
2023/05/05 05:06:19;;;;;;;1.98;1.33;;;20.00;52.80;;;;;;4995066;28;20103;-67
2023/05/05 05:08:44;;;;;;;3.47;1.52;;;20.00;52.80;;;;;;4996126;28;20504;-67
2023/05/05 05:11:11;;;;;;;2.45;1.50;;;20.00;52.80;;;;;;4995644;28;20038;-67
2023/05/05 05:13:36;;;;;;;2.45;1.50;;;20.00;52.80;;;;;;4995375;28;20128;-67
2023/05/05 05:16:02;;;;;;;2.45;1.55;;;20.00;52.90;;;;;;4994774;28;20185;-67
2023/05/05 05:18:27;;;;;;;2.15;1.40;;;20.00;52.80;;;;;;4995600;28;20401;-67
2023/05/05 05:20:53;;;;;;;2.92;1.48;;;20.00;52.90;;;;;;4995164;28;20097;-67
2023/05/05 05:23:18;;;;;;;2.30;1.33;;;20.00;52.90;;;;;;4994046;28;20053;-67
2023/05/05 05:25:44;;;;;;;2.03;1.20;;;20.00;53.60;;;;;;4995535;28;20053;-67
2023/05/05 05:28:10;;;;;;;2.55;1.50;;;20.00;52.90;;;;;;4993644;28;20050;-67
2023/05/05 05:30:36;;;;;;;2.35;1.30;;;20.00;52.90;;;;;;4995561;28;20385;-66
2023/05/05 05:33:01;;;;;;;3.20;1.48;;;20.10;53.00;;;;;;4995655;28;20051;-67
2023/05/05 05:35:27;;;;;;;1.65;1.20;;;20.00;52.90;;;;;;4994569;28;20043;-67
2023/05/05 05:37:52;;;;;;;2.47;1.38;;;20.10;53.00;;;;;;5009015;28;20068;-66
2023/05/05 05:40:18;;;;;;;2.60;1.38;;;20.00;52.90;;;;;;5013268;28;20128;-67
2023/05/05 05:42:43;;;;;;;2.30;1.60;;;20.10;53.00;;;;;;5015215;28;20120;-67
2023/05/05 05:45:09;;;;;;;2.38;1.58;;;20.10;53.10;;;;;;5001037;28;20046;-67
2023/05/05 05:47:35;;;;;;;2.40;1.38;;;20.10;53.00;;;;;;4994643;28;20486;-67
2023/05/05 05:50:00;;;;;;;1.63;1.23;;;20.10;53.10;;;;;;5008949;28;20556;-66
2023/05/05 05:52:26;;;;;;;3.70;1.80;;;20.10;53.10;;;;;;5013596;28;20081;-67
2023/05/05 05:54:52;;;;;;;2.13;1.50;;;20.10;53.10;;;;;;5003337;28;20082;-67
2023/05/05 05:57:17;;;;;;;2.70;1.50;;;20.10;53.10;;;;;;4995067;28;20141;-67
2023/05/05 05:59:43;;;;;;;2.10;1.58;;;20.10;53.10;;;;;;4993482;28;20094;-67
2023/05/05 06:02:09;;;;;;;1.83;1.40;;;20.10;53.10;;;;;;4994165;28;20050;-67
2023/05/05 06:04:34;;;;;;;2.35;1.40;;;20.10;53.10;;;;;;4995126;28;20047;-65
2023/05/05 06:07:00;;;;;;;3.92;1.67;;;20.10;53.10;;;;;;4995138;28;20038;-67
2023/05/05 06:09:25;;;;;;;4.10;1.45;;;20.20;53.20;;;;;;4993944;28;20096;-65
2023/05/05 06:11:51;;;;;;;7.15;1.80;;;20.20;53.20;;;;;;4995060;28;20050;-69
2023/05/05 06:14:17;;;;;;;3.05;1.70;;;20.20;53.20;;;;;;4993573;28;20053;-68
2023/05/05 06:16:43;;;;;;;3.08;1.60;;;20.20;53.30;;;;;;4994383;28;20393;-69
2023/05/05 06:19:09;;;;;;;5.90;1.88;;;20.20;53.30;;;;;;4994777;28;20034;-68
2023/05/05 06:21:35;;;;;;;5.60;1.92;;;20.20;53.60;;;;;;4994960;28;20054;-69
2023/05/05 06:24:01;;;;;;;7.03;2.90;;;20.20;53.80;;;;;;4993996;28;20045;-68
2023/05/05 06:26:26;;;;;;;8.73;2.20;;;20.30;54.00;;;;;;4994291;28;20042;-68
2023/05/05 06:28:52;;;;;;;8.27;2.75;;;20.30;54.10;;;;;;4994760;28;20494;-68
2023/05/05 06:31:17;;;;;;;6.22;2.40;;;20.30;54.10;;;;;;4993740;28;20441;-65
2023/05/05 06:33:43;;;;;;;4.05;2.20;;;20.30;54.30;;;;;;4994738;28;20489;-65
2023/05/05 06:36:08;;;;;;;5.07;2.17;;;20.30;54.30;;;;;;4993023;28;20402;-69
2023/05/05 06:38:34;;;;;;;5.35;1.90;;;20.30;54.30;;;;;;4993669;28;20393;-70
2023/05/05 06:40:59;;;;;;;7.68;2.05;;;20.30;54.30;;;;;;5000284;28;20049;-71
2023/05/05 06:43:25;;;;;;;4.88;1.90;;;20.30;54.30;;;;;;5002543;28;20042;-70
2023/05/05 06:45:51;;;;;;;3.85;1.88;;;20.30;54.40;;;;;;5001520;28;20541;-73
2023/05/05 06:48:17;;;;;;;4.60;2.33;;;20.30;54.50;;;;;;5011772;28;20041;-71
2023/05/05 06:50:42;;;;;;;5.25;2.13;;;20.30;54.60;;;;;;4997193;28;20042;-70
2023/05/05 06:53:08;;;;;;;4.30;2.25;;;20.40;55.10;;;;;;4994080;28;20053;-71
2023/05/05 06:55:34;;;;;;;5.07;2.28;;;20.30;54.80;;;;;;4991928;28;20137;-72
2023/05/05 06:57:59;;;;;;;4.80;2.00;;;20.40;54.90;;;;;;4991246;28;20046;-73
2023/05/05 07:00:25;;;;;;;5.70;2.17;;;20.40;54.90;;;;;;4993780;28;20531;-71
2023/05/05 07:02:51;;;;;;;8.32;2.40;;;20.40;55.00;;;;;;4992953;28;20156;-72
2023/05/05 07:05:16;;;;;;;6.47;2.15;;;20.40;55.10;;;;;;4993154;28;20047;-70
2023/05/05 07:07:52;;;;;;;4.68;2.05;;;20.40;55.10;;;;;;4994322;28;20529;-72
2023/05/05 07:10:17;;;;;;;5.88;1.90;;;20.40;55.20;;;;;;4994027;28;20066;-72
2023/05/05 07:12:43;;;;;;;6.85;2.15;;;20.40;55.20;;;;;;4993185;28;20582;-73
2023/05/05 07:15:09;;;;;;;7.05;2.15;;;20.50;55.30;;;;;;4993841;28;20054;-73
2023/05/05 07:17:34;;;;;;;4.75;2.03;;;20.50;55.30;;;;;;4994037;28;20114;-72
2023/05/05 07:20:00;;;;;;;4.80;2.03;;;20.50;55.30;;;;;;4993386;28;20502;-73
2023/05/05 07:22:26;;;;;;;4.63;2.13;;;20.50;55.40;;;;;;4993647;28;20046;-72
2023/05/05 07:24:52;;;;;;;3.88;1.98;;;20.50;55.50;;;;;;4993745;28;20049;-73
2023/05/05 07:27:18;;;;;;;4.35;2.13;;;20.50;55.50;;;;;;4992880;28;20046;-72
2023/05/05 07:29:44;;;;;;;2.70;1.80;;;20.60;55.60;;;;;;5013543;28;20041;-73
2023/05/05 07:32:09;;;;;;;3.97;1.77;;;20.60;55.70;;;;;;5032333;28;20381;-68
2023/05/05 07:34:36;;;;;;;5.13;2.13;;;20.60;55.70;;;;;;5021200;28;20133;-66
2023/05/05 07:37:02;;;;;;;3.88;1.92;;;20.60;55.70;;;;;;5030449;28;20120;-66
2023/05/05 07:39:28;;;;;;;4.22;1.98;;;20.60;55.70;;;;;;5031655;28;20041;-65
2023/05/05 07:41:54;;;;;;;3.90;2.08;;;20.60;55.60;;;;;;5026977;28;20088;-69
2023/05/05 07:44:19;;;;;;;5.85;2.15;;;20.60;55.60;;;;;;5023795;28;20076;-73
2023/05/05 07:46:47;;;;;;;;;;;20.70;55.70;;;;;;5030056;28;20038;-71
2023/05/05 07:49:13;;;;;;;3.85;2.30;;;20.70;55.80;;;;;;4999120;28;20019;-70
2023/05/05 07:51:39;;;;;;;4.50;1.90;;;20.70;55.70;;;;;;5023034;28;20049;-70
2023/05/05 07:54:04;;;;;;;6.30;2.10;;;20.70;55.80;;;;;;5026676;28;20120;-72
2023/05/05 07:56:30;;;;;;;4.40;2.20;;;20.70;55.80;;;;;;5032237;28;20033;-71
2023/05/05 07:58:56;;;;;;;4.05;1.85;;;20.70;56.00;;;;;;5027848;28;20477;-70
2023/05/05 08:01:21;;;;;;;6.50;2.20;;;20.70;56.00;;;;;;5032381;28;20097;-71
2023/05/05 08:03:47;;;;;;;4.13;1.50;;;20.80;56.00;;;;;;5021773;28;20070;-70
2023/05/05 08:06:14;;;;;;;3.80;2.20;;;20.80;56.10;;;;;;5025806;28;20071;-71
2023/05/05 08:08:40;;;;;;;4.10;1.77;;;20.80;56.10;;;;;;5021712;28;20080;-70
2023/05/05 08:11:06;;;;;;;4.28;2.05;;;20.80;56.10;;;;;;5032800;28;20332;-70
2023/05/05 08:13:32;;;;;;;3.13;1.80;;;20.80;56.10;;;;;;5007694;28;20142;-72
2023/05/05 08:15:58;;;;;;;5.53;2.17;;;20.90;56.20;;;;;;4992613;28;20046;-71
2023/05/05 08:18:23;;;;;;;3.08;2.03;;;20.90;56.20;;;;;;4992525;28;20085;-69
2023/05/05 08:20:49;;;;;;;5.22;2.53;;;20.90;56.20;;;;;;4993135;28;20093;-65
2023/05/05 08:23:15;;;;;;;6.45;1.90;;;20.90;56.20;;;;;;4991805;28;20046;-72
2023/05/05 08:25:42;;;;;;;4.75;2.25;;;20.90;56.10;;;;;;4993351;28;20035;-69
2023/05/05 08:28:07;;;;;;;4.45;1.90;;;20.90;56.10;;;;;;4992259;28;20441;-69
2023/05/05 08:30:33;;;;;;;3.63;1.95;;;21.00;56.10;;;;;;4992038;28;20054;-66
2023/05/05 08:32:59;;;;;;;3.45;1.90;;;21.00;56.10;;;;;;4992812;28;20053;-65
2023/05/05 08:35:24;;;;;;;5.03;1.73;;;21.00;56.10;;;;;;4992613;28;20113;-67
2023/05/05 08:37:50;;;;;;;7.47;2.17;;;21.00;56.10;;;;;;5009097;28;20149;-67
2023/05/05 08:40:16;;;;;;;4.95;2.15;;;21.00;56.20;;;;;;5011994;28;20046;-67
2023/05/05 08:42:43;;;;;;;6.00;1.80;;;21.10;56.40;;;;;;5011547;28;20045;-69
2023/05/05 08:45:09;;;;;;;5.72;1.88;;;21.00;56.20;;;;;;5011012;28;20045;-67
2023/05/05 08:47:35;;;;;;;5.90;2.15;;;21.10;56.10;;;;;;5011841;28;20069;-69
2023/05/05 08:50:00;;;;;;;4.53;2.17;;;21.10;56.10;;;;;;5012433;28;20050;-67
2023/05/05 08:52:28;;;;;;;5.45;1.92;;;21.10;56.00;;;;;;5009850;28;20045;-67
2023/05/05 08:54:56;;;;;;;6.22;2.42;;;21.20;56.00;;;;;;5011460;28;20116;-68
2023/05/05 08:57:30;;;;;;;4.55;2.40;;;21.20;56.00;;;;;;5004527;28;20426;-71
2023/05/05 08:59:56;;;;;;;4.57;2.10;;;21.20;56.00;;;;;;5002774;28;20056;-69
2023/05/05 09:02:22;;;;;;;5.72;2.30;;;21.20;56.00;;;;;;5001859;28;20042;-65
2023/05/05 09:04:50;;;;;;;7.90;2.65;;;21.20;56.00;;;;;;4990938;28;20053;-68
2023/05/05 09:07:16;;;;;;;10.80;2.97;;;21.20;56.10;;;;;;4992393;28;20050;-68
2023/05/05 09:09:41;;;;;;;10.50;3.08;;;21.30;56.10;;;;;;4992971;28;20046;-68
2023/05/05 09:12:07;;;;;;;9.30;2.88;;;21.30;56.20;;;;;;4991674;28;20477;-67
2023/05/05 09:14:32;;;;;;;7.72;2.50;;;21.30;56.20;;;;;;4994715;28;20437;-67
2023/05/05 09:16:58;;;;;;;9.23;3.22;;;21.30;56.10;;;;;;4996387;28;20117;-66
2023/05/05 09:19:23;;;;;;;11.10;2.35;;;21.30;56.00;;;;;;4995195;28;20052;-66
2023/05/05 09:21:49;;;;;;;11.90;2.80;;;21.30;56.10;;;;;;4995890;28;20137;-65
2023/05/05 09:24:14;;;;;;;8.40;2.60;;;21.30;56.20;;;;;;4995963;28;20031;-66
2023/05/05 09:26:42;;;;;;;9.65;2.50;;;21.40;56.50;;;;;;4995119;28;20620;-65
2023/05/05 09:29:07;;;;;;;9.82;2.72;;;21.40;56.90;;;;;;4995852;28;20061;-67
2023/05/05 09:31:33;;;;;;;10.32;3.05;;;21.40;57.10;;;;;;4995654;28;20038;-64
2023/05/05 09:33:59;;;;;;;8.88;2.70;;;21.40;57.10;;;;;;4995110;28;20046;-64
2023/05/05 09:36:46;;;;;;;12.13;2.72;;;21.40;57.10;;;;;;4995390;28;20397;-65
2023/05/05 09:39:13;;;;;;;11.18;3.15;;;21.40;57.40;;;;;;4995431;28;20448;-65
2023/05/05 09:41:39;;;;;;;8.45;2.63;;;21.40;57.30;;;;;;4994797;28;20051;-65
2023/05/05 09:44:05;;;;;;;7.72;2.90;;;21.40;57.40;;;;;;4995425;28;20359;-65
2023/05/05 09:46:31;;;;;;;9.57;3.17;;;21.40;57.30;;;;;;4995070;28;20046;-64
2023/05/05 09:49:13;;;;;;;10.85;2.90;;;21.40;57.30;;;;;;4995415;28;20058;-61
2023/05/05 09:51:39;;;;;;;12.52;3.70;;;21.40;57.90;;;;;;5000665;28;20069;-63
2023/05/05 09:54:05;;;;;;;11.32;3.45;;;21.40;58.00;;;;;;5003234;28;20037;-62
2023/05/05 09:56:38;;;;;;;10.75;3.30;;;21.40;58.50;;;;;;5005065;28;20041;-62
2023/05/05 09:59:10;;;;;;;10.50;3.17;;;21.50;59.10;;;;;;5001983;28;20048;-61
2023/05/05 10:01:36;;;;;;;13.30;2.85;;;21.50;59.30;;;;;;5017014;28;20053;-62
2023/05/05 10:04:02;;;;;;;9.52;2.92;;;21.50;59.30;;;;;;5032066;28;20046;-62
2023/05/05 10:06:42;;;;;;;8.27;3.03;;;21.50;59.40;;;;;;5032206;28;20083;-62
2023/05/05 10:09:08;;;;;;;8.23;2.97;;;21.50;59.50;;;;;;5030951;28;20428;-62
2023/05/05 10:11:33;;;;;;;8.68;3.42;;;21.50;59.40;;;;;;5034194;28;20033;-61
2023/05/05 10:13:59;;;;;;;6.70;3.03;;;21.50;59.50;;;;;;5019253;28;20413;-61
2023/05/05 10:16:26;;;;;;;8.48;3.28;;;21.60;59.50;;;;;;5031382;28;20060;-61
2023/05/05 10:18:51;;;;;;;5.68;2.67;;;21.60;59.50;;;;;;5021726;28;20522;-62
2023/05/05 10:21:19;;;;;;;9.43;3.20;;;21.60;59.50;;;;;;5012863;28;20133;-62
2023/05/05 10:23:49;;;;;;;8.75;3.00;;;21.60;59.50;;;;;;5013672;28;20042;-61
2023/05/05 10:26:14;;;;;;;10.15;3.00;;;21.60;59.50;;;;;;5011913;28;20135;-62
2023/05/05 10:28:46;;;;;;;8.30;3.30;;;21.60;59.50;;;;;;5002223;28;20073;-62
2023/05/05 10:31:16;;;;;;;8.70;3.10;;;21.60;59.40;;;;;;5032680;28;20045;-61
2023/05/05 10:33:48;;;;;;;8.73;3.08;;;21.60;59.20;;;;;;5024224;28;20054;-61
2023/05/05 10:36:13;;;;;;;10.48;3.10;;;21.60;59.00;;;;;;5029061;28;20120;-61
2023/05/05 10:38:39;;;;;;;7.03;2.70;;;21.60;59.60;;;;;;5022883;28;20152;-62
2023/05/05 10:41:05;;;;;;;7.22;3.00;;;21.60;58.80;;;;;;5013490;28;20042;-62
2023/05/05 10:43:30;;;;;;;7.15;2.70;;;21.70;58.80;;;;;;5012895;28;20034;-61
2023/05/05 10:45:56;;;;;;;6.20;2.88;;;21.70;58.70;;;;;;5013822;28;20050;-61
2023/05/05 10:48:34;;;;;;;8.10;2.95;;;21.70;58.70;;;;;;5013417;28;20049;-62
2023/05/05 10:51:09;;;;;;;7.47;3.05;;;21.70;58.60;;;;;;5012106;28;20054;-62
2023/05/05 10:53:43;;;;;;;11.88;3.13;;;21.70;58.60;;;;;;5013903;28;20096;-62
2023/05/05 10:56:26;;;;;;;8.18;3.53;;;21.70;58.60;;;;;;5013657;28;20064;-62
2023/05/05 10:58:52;;;;;;;10.85;3.20;;;21.70;58.50;;;;;;5011799;28;20113;-61
2023/05/05 11:01:33;;;;;;;13.00;3.47;;;21.80;58.50;;;;;;5012847;28;20136;-61
2023/05/05 11:04:15;;;;;;;9.02;3.28;;;21.70;58.40;;;;;;5002954;28;20046;-62
2023/05/05 11:07:09;;;;;;;8.40;3.55;;;21.70;58.40;;;;;;5011622;28;20053;-62
2023/05/05 11:09:37;;;;;;;6.47;2.83;;;21.80;58.40;;;;;;4997431;28;20402;-62
2023/05/05 11:12:06;;;;;;;7.90;2.90;;;21.80;58.40;;;;;;4993342;28;20080;-61
2023/05/05 11:14:32;;;;;;;9.15;3.22;;;21.80;58.40;;;;;;4992881;28;20410;-61
2023/05/05 11:16:57;;;;;;;8.50;3.10;;;21.80;58.40;;;;;;4996395;28;20398;-61
2023/05/05 11:19:41;;;;;;;6.35;3.33;;;21.80;58.30;;;;;;4997914;28;20060;-64
2023/05/05 11:22:06;;;;;;;8.80;3.00;;;21.80;58.30;;;;;;4993161;28;20077;-62
2023/05/05 11:24:32;;;;;;;6.38;2.55;;;21.80;58.30;;;;;;4993837;28;20485;-62
2023/05/05 11:26:58;;;;;;;6.53;3.20;;;21.80;58.30;;;;;;4993326;28;20050;-62
2023/05/05 11:29:24;;;;;;;9.43;3.35;;;21.80;58.30;;;;;;4996672;28;20034;-61
2023/05/05 11:32:12;;;;;;;9.40;2.97;;;21.80;58.30;;;;;;5002026;28;20054;-62
2023/05/05 11:34:46;;;;;;;;;;;21.80;58.30;;;;;;5001705;28;20517;-62
2023/05/05 11:37:12;;;;;;;7.97;2.65;;;21.80;58.20;;;;;;5003316;28;20292;-62
2023/05/05 11:40:03;;;;;;;7.47;3.10;;;21.80;58.30;;;;;;4998968;28;20046;-62
2023/05/05 11:42:29;;;;;;;9.10;3.30;;;21.80;58.30;;;;;;5002831;28;20042;-62
2023/05/05 11:44:54;;;;;;;4.90;2.63;;;21.80;58.30;;;;;;5000583;28;20081;-61
2023/05/05 11:47:20;;;;;;;5.53;2.83;;;21.80;58.30;;;;;;5002225;28;20046;-62
2023/05/05 11:49:45;;;;;;;5.72;2.63;;;21.70;58.20;;;;;;5001229;28;20096;-62
2023/05/05 11:52:14;;;;;;;5.95;2.65;;;21.70;58.20;;;;;;5003505;28;20383;-62
2023/05/05 11:54:50;;;;;;;5.85;3.10;;;21.70;58.20;;;;;;5000480;28;20149;-61
2023/05/05 11:57:19;;;;;;;9.18;2.88;;;21.70;58.20;;;;;;5003492;28;20042;-62
2023/05/05 12:00:05;;;;;;;6.72;2.83;;;21.70;59.00;;;;;;5002813;28;20053;-63
2023/05/05 12:02:30;;;;;;;8.93;2.80;;;21.70;58.20;;;;;;5013038;28;20050;-61
2023/05/05 12:04:57;;;;;;;7.88;2.80;;;21.70;58.30;;;;;;4998589;28;20122;-60
2023/05/05 12:07:24;;;;;;;6.60;2.78;;;21.60;58.30;;;;;;4998646;28;20539;-61
2023/05/05 12:09:50;;;;;;;8.45;2.40;;;21.60;58.20;;;;;;5017968;28;20057;-57
2023/05/05 12:12:16;;;;;;;5.15;2.88;;;21.60;58.20;;;;;;5031669;28;20099;-62
2023/05/05 12:14:45;;;;;;;9.15;3.00;;;21.60;58.20;;;;;;5029671;28;20056;-68
2023/05/05 12:17:11;;;;;;;11.35;3.08;;;21.60;58.40;;;;;;5031216;28;20045;-63
2023/05/05 12:19:45;;;;;;;5.82;2.65;;;21.60;58.40;;;;;;5030486;28;20047;-63
2023/05/05 12:22:11;;;;;;;18.35;7.05;;;21.60;58.40;;;;;;5029359;28;20033;-60
2023/05/05 12:24:36;;;;;;;20.58;5.82;;;21.60;58.50;;;;;;4986685;28;20054;-61
2023/05/05 12:27:09;;;;;;;11.82;4.70;;;21.60;58.80;;;;;;5028555;28;20140;-63
2023/05/05 12:29:35;;;;;;;14.52;4.70;;;21.60;58.80;;;;;;5021491;28;20096;-61
2023/05/05 12:32:00;;;;;;;14.00;4.25;;;21.60;58.80;;;;;;5032014;28;20046;-62
2023/05/05 12:34:26;;;;;;;10.57;3.85;;;21.60;59.10;;;;;;5022833;28;20042;-62
2023/05/05 12:36:52;;;;;;;12.27;3.90;;;21.60;59.10;;;;;;5013045;28;20064;-62
2023/05/05 12:39:17;;;;;;;10.77;3.70;;;21.50;58.90;;;;;;5024344;28;20041;-65
2023/05/05 12:41:43;;;;;;;15.07;6.30;;;21.50;58.80;;;;;;5030943;28;20045;-61
2023/05/05 12:44:08;;;;;;;15.57;5.65;;;21.50;59.00;;;;;;5010724;28;20506;-60
2023/05/05 12:46:44;;;;;;;15.82;3.80;;;21.50;59.30;;;;;;5010291;28;20041;-61
2023/05/05 12:49:09;;;;;;;22.15;8.98;;;21.50;59.10;;;;;;5026724;28;20088;-60